Time;durP1;ratioP1;P1;durP2;ratioP2;P2;SDS_P1;SDS_P2;PMS_P1;PMS_P2;Temp;Humidity;BMP_temperature;BMP_pressure;BME280_temperature;BME280_humidity;BME280_pressure;Samples;Min_cycle;Max_cycle;Signal;HPM_P1;HPM_P2
2021/04/12 00:00:49;;;;;;;2.15;1.95;;;;;;;6.71;69.82;101558.13;5075377;28;20063;-47
2021/04/12 00:03:59;;;;;;;2.33;2.13;;;;;;;6.68;70.54;101568.38;5079931;28;20027;-45
2021/04/12 00:06:46;;;;;;;3.22;2.47;;;;;;;6.50;71.66;101567.09;4986927;28;20682;-46
2021/04/12 00:09:20;;;;;;;5.28;3.72;;;;;;;6.23;73.02;101570.69;4986725;28;20050;-46
2021/04/12 00:12:16;;;;;;;3.63;2.72;;;;;;;6.35;71.84;101582.41;5051923;28;20114;-45
2021/04/12 00:14:55;;;;;;;3.50;2.75;;;;;;;6.18;72.64;101584.59;5076864;28;20036;-44
2021/04/12 00:17:27;;;;;;;4.47;2.85;;;;;;;6.09;73.33;101580.44;5078526;28;20035;-44
2021/04/12 00:20:10;;;;;;;3.60;2.90;;;;;;;5.85;73.56;101584.41;5080645;28;20028;-47
2021/04/12 00:22:42;;;;;;;2.97;2.30;;;;;;;6.08;72.79;101581.47;5080762;28;20111;-45
2021/04/12 00:25:39;;;;;;;3.28;2.63;;;;;;;6.06;72.43;101586.16;5073646;28;20028;-45
2021/04/12 00:28:13;;;;;;;4.13;2.67;;;;;;;6.19;71.75;101578.25;5078182;28;20462;-45
2021/04/12 00:31:05;;;;;;;3.63;2.80;;;;;;;5.95;72.71;101589.41;5079462;28;20024;-44
2021/04/12 00:33:46;;;;;;;3.63;2.50;;;;;;;6.00;73.04;101589.63;5076171;28;20123;-46
2021/04/12 00:36:24;;;;;;;3.85;2.95;;;;;;;5.71;73.44;101612.75;5078957;28;20032;-45
2021/04/12 00:38:56;;;;;;;4.90;3.67;;;;;;;5.78;72.94;101614.63;5079372;28;20725;-45
2021/04/12 00:41:52;;;;;;;4.45;3.45;;;;;;;5.45;73.63;101612.56;5077680;28;20044;-45
2021/04/12 00:44:44;;;;;;;5.93;3.97;;;;;;;5.46;74.10;101603.56;5051097;28;20052;-45
2021/04/12 00:47:31;;;;;;;4.60;3.33;;;;;;;5.50;73.87;101606.66;5059761;28;20132;-44
2021/04/12 00:50:18;;;;;;;5.72;4.43;;;;;;;5.63;72.68;101601.44;5078024;28;20031;-48
2021/04/12 00:52:59;;;;;;;5.65;4.45;;;;;;;5.66;72.69;101591.25;5078968;28;20541;-46
2021/04/12 00:55:57;;;;;;;5.60;4.15;;;;;;;5.76;72.47;101580.28;5076242;28;20040;-45
2021/04/12 00:58:55;;;;;;;6.97;5.20;;;;;;;5.84;72.51;101572.13;5077672;28;20040;-44
2021/04/12 01:01:49;;;;;;;7.65;4.75;;;;;;;5.67;73.33;101584.91;5077304;28;20028;-45
2021/04/12 01:04:45;;;;;;;6.15;4.93;;;;;;;5.86;72.39;101623.28;5065085;28;20052;-44
2021/04/12 01:07:29;;;;;;;6.85;5.20;;;;;;;5.72;72.87;101633.00;5033295;28;20502;-44
2021/04/12 01:10:21;;;;;;;8.75;5.53;;;;;;;5.27;75.71;101644.09;5076028;28;20065;-47
2021/04/12 01:13:12;;;;;;;7.18;5.15;;;;;;;5.31;74.84;101645.34;5076476;28;20082;-46
2021/04/12 01:15:50;;;;;;;6.65;4.28;;;;;;;5.50;73.54;101649.19;5061621;28;20053;-45
2021/04/12 01:18:36;;;;;;;7.90;4.93;;;;;;;5.42;74.79;101658.97;5076492;28;20059;-45
2021/04/12 01:21:24;;;;;;;7.10;3.75;;;;;;;5.45;73.82;101674.53;5076739;28;20035;-45
2021/04/12 01:24:32;;;;;;;5.47;3.88;;;;;;;5.63;73.32;101659.94;5056173;28;20135;-44
2021/04/12 01:27:32;;;;;;;5.25;3.65;;;;;;;5.55;73.52;101652.09;5076945;28;20020;-45
2021/04/12 01:30:06;;;;;;;5.03;4.07;;;;;;;5.70;72.96;101658.13;5034684;28;20032;-44
2021/04/12 01:32:44;;;;;;;6.80;4.50;;;;;;;5.46;74.63;101668.19;5078319;28;20563;-44
2021/04/12 01:35:37;;;;;;;6.22;4.47;;;;;;;5.49;74.94;101666.16;5077860;28;20282;-46
2021/04/12 01:38:23;;;;;;;7.05;4.68;;;;;;;5.38;75.94;101678.13;5075815;28;20039;-45
2021/04/12 01:41:13;;;;;;;9.77;4.88;;;;;;;5.37;76.24;101677.28;5059007;28;20036;-45
2021/04/12 01:44:18;;;;;;;6.90;5.20;;;;;;;5.41;76.44;101683.06;5080440;28;20044;-44
2021/04/12 01:47:08;;;;;;;7.03;5.03;;;;;;;5.32;77.12;101678.88;5079060;28;20032;-47
2021/04/12 01:49:59;;;;;;;7.18;4.90;;;;;;;5.42;77.01;101688.19;5075656;28;20040;-44
2021/04/12 01:52:36;;;;;;;6.45;4.53;;;;;;;5.18;78.48;101709.00;5077772;28;20036;-45
2021/04/12 01:55:45;;;;;;;7.03;4.60;;;;;;;5.00;78.73;101694.31;5074639;28;20510;-46
2021/04/12 01:58:29;;;;;;;6.10;4.57;;;;;;;5.14;77.76;101692.63;4997915;28;20093;-44
2021/04/12 02:01:20;;;;;;;5.68;4.03;;;;;;;5.25;76.33;101680.69;5075587;28;20028;-45
2021/04/12 02:04:16;;;;;;;4.78;3.60;;;;;;;5.24;75.98;101695.78;5076640;28;20073;-44
2021/04/12 02:06:44;;;;;;;5.68;3.92;;;;;;;5.25;75.98;101707.25;5077527;28;20069;-44
2021/04/12 02:09:16;;;;;;;5.55;4.22;;;;;;;5.39;74.93;101704.53;5075396;28;20036;-45
2021/04/12 02:11:44;;;;;;;5.70;4.30;;;;;;;5.15;75.39;101712.84;5076421;28;20043;-45
2021/04/12 02:14:17;;;;;;;5.80;4.00;;;;;;;5.14;75.57;101722.66;5078763;28;20032;-48
2021/04/12 02:16:54;;;;;;;5.85;4.30;;;;;;;5.22;75.30;101726.22;5079953;28;20140;-45
2021/04/12 02:19:19;;;;;;;5.15;4.18;;;;;;;5.13;75.70;101722.84;5081459;28;20093;-44
2021/04/12 02:21:59;;;;;;;5.57;4.10;;;;;;;5.08;76.26;101720.75;5082405;28;20044;-45
2021/04/12 02:24:48;;;;;;;7.00;4.63;;;;;;;5.20;75.50;101723.72;5080952;28;20031;-46
2021/04/12 02:27:20;;;;;;;6.13;4.50;;;;;;;5.14;76.28;101720.00;5080481;28;20040;-45
2021/04/12 02:30:05;;;;;;;6.38;4.40;;;;;;;5.08;76.45;101720.75;5081916;28;20034;-46
2021/04/12 02:32:44;;;;;;;;;;;;;;;4.88;76.79;101725.03;5082018;28;20115;-45
2021/04/12 02:35:15;;;;;;;8.30;4.35;;;;;;;4.92;76.99;101728.13;5079849;28;19927;-45
2021/04/12 02:37:59;;;;;;;6.75;3.60;;;;;;;4.68;77.55;101735.41;5080131;28;20028;-45
2021/04/12 02:40:30;;;;;;;5.70;4.32;;;;;;;4.72;77.93;101735.88;5079868;28;20041;-45
2021/04/12 02:43:40;;;;;;;5.43;4.30;;;;;;;4.54;78.59;101722.97;5077695;28;20031;-46
2021/04/12 02:46:40;;;;;;;5.93;3.85;;;;;;;4.65;78.20;101725.13;5058081;28;20036;-45
2021/04/12 02:49:33;;;;;;;5.72;4.07;;;;;;;4.70;77.89;101740.53;5078720;28;20047;-45
2021/04/12 02:52:01;;;;;;;6.93;4.40;;;;;;;4.65;77.79;101740.25;5078992;28;20055;-45
2021/04/12 02:54:55;;;;;;;7.28;4.72;;;;;;;4.47;78.34;101743.28;5080885;28;20019;-46
2021/04/12 02:57:39;;;;;;;5.07;4.25;;;;;;;4.56;77.49;101742.19;5080860;28;20108;-45
2021/04/12 03:00:22;;;;;;;8.02;5.35;;;;;;;4.58;77.35;101748.13;5077956;28;20061;-46
2021/04/12 03:03:02;;;;;;;6.28;4.75;;;;;;;4.63;76.81;101742.25;5078892;28;20024;-46
2021/04/12 03:05:45;;;;;;;7.28;5.25;;;;;;;4.64;76.55;101743.91;5079773;28;20043;-47
2021/04/12 03:08:34;;;;;;;5.97;4.13;;;;;;;4.65;76.14;101735.75;5077670;28;20088;-48
2021/04/12 03:11:21;;;;;;;6.70;4.68;;;;;;;4.51;77.00;101734.78;5078002;28;20054;-45
2021/04/12 03:14:08;;;;;;;6.20;4.55;;;;;;;4.30;77.37;101737.31;5077619;28;20059;-45
2021/04/12 03:16:39;;;;;;;6.43;4.25;;;;;;;4.34;76.97;101743.94;5080768;28;20430;-48
2021/04/12 03:19:49;;;;;;;8.55;4.45;;;;;;;4.49;76.23;101735.97;5078476;28;20032;-45
2021/04/12 03:22:22;;;;;;;8.65;5.10;;;;;;;4.68;74.96;101737.25;5033903;28;20124;-44
2021/04/12 03:25:09;;;;;;;6.38;4.50;;;;;;;4.67;74.76;101739.09;5076460;28;20054;-44
2021/04/12 03:27:52;;;;;;;6.15;4.18;;;;;;;4.38;75.13;101745.22;5080391;28;20062;-46
2021/04/12 03:30:44;;;;;;;7.22;4.57;;;;;;;4.35;75.45;101750.88;5078742;28;20036;-44
2021/04/12 03:33:37;;;;;;;6.38;4.00;;;;;;;4.46;75.15;101762.88;5076999;28;20028;-46
2021/04/12 03:36:06;;;;;;;10.00;4.95;;;;;;;4.43;75.34;101761.41;5079156;28;20043;-44
2021/04/12 03:38:57;;;;;;;6.55;4.38;;;;;;;4.30;76.10;101763.84;5079606;28;20024;-48
2021/04/12 03:41:44;;;;;;;7.03;4.63;;;;;;;4.40;75.97;101771.56;5079776;28;20580;-45
2021/04/12 03:44:28;;;;;;;7.40;4.45;;;;;;;4.42;75.68;101775.69;5078005;28;20123;-45
2021/04/12 03:47:02;;;;;;;6.15;4.10;;;;;;;4.25;75.33;101782.16;5077382;28;20542;-45
2021/04/12 03:50:05;;;;;;;6.88;4.50;;;;;;;4.29;75.24;101772.81;5080023;28;20065;-47
2021/04/12 03:53:10;;;;;;;7.30;4.72;;;;;;;4.16;76.33;101794.69;5081856;28;20066;-44
2021/04/12 03:56:02;;;;;;;6.25;4.03;;;;;;;4.23;75.27;101792.94;5079968;28;20023;-46
2021/04/12 03:58:57;;;;;;;5.78;3.65;;;;;;;4.32;74.86;101800.84;5080498;28;20054;-44
2021/04/12 04:02:11;;;;;;;6.57;4.82;;;;;;;4.06;75.53;101803.88;5080067;28;20107;-46
2021/04/12 04:04:47;;;;;;;5.35;3.75;;;;;;;4.06;75.69;101817.16;4973887;28;20054;-44
2021/04/12 04:07:54;;;;;;;5.75;4.32;;;;;;;4.06;76.21;101809.19;4974871;28;20041;-46
2021/04/12 04:10:19;;;;;;;6.57;4.45;;;;;;;4.26;74.66;101805.03;5058935;28;20448;-47
2021/04/12 04:13:01;;;;;;;6.93;4.50;;;;;;;4.28;74.85;101812.81;5081240;28;20036;-45
2021/04/12 04:16:06;;;;;;;7.85;4.88;;;;;;;4.06;75.25;101819.81;5078113;28;20016;-44
2021/04/12 04:18:41;;;;;;;8.73;5.05;;;;;;;4.22;75.24;101820.50;5078961;28;20626;-44
2021/04/12 04:21:20;;;;;;;6.47;4.45;;;;;;;4.12;75.76;101816.41;5078334;28;20063;-46
2021/04/12 04:24:23;;;;;;;7.43;4.60;;;;;;;3.67;78.03;101819.94;5077858;28;20069;-46
2021/04/12 04:27:08;;;;;;;6.90;5.07;;;;;;;3.54;79.34;101828.47;5076895;28;20024;-47
2021/04/12 04:29:49;;;;;;;6.32;4.75;;;;;;;3.55;79.10;101822.16;5080526;28;20048;-46
2021/04/12 04:32:33;;;;;;;5.78;4.03;;;;;;;3.70;78.24;101823.06;5078678;28;20035;-46
2021/04/12 04:35:26;;;;;;;6.90;5.05;;;;;;;3.66;78.33;101823.59;5078369;28;20089;-45
2021/04/12 04:38:34;;;;;;;8.32;5.13;;;;;;;3.74;78.20;101827.00;5077694;28;20486;-45
2021/04/12 04:41:14;;;;;;;9.40;5.75;;;;;;;3.61;79.16;101832.91;5076516;28;20020;-47
2021/04/12 04:43:52;;;;;;;6.32;4.38;;;;;;;3.62;79.47;101841.69;5072839;28;20017;-46
2021/04/12 04:46:37;;;;;;;7.53;4.70;;;;;;;3.55;79.15;101846.00;5073009;28;20502;-45
2021/04/12 04:49:22;;;;;;;6.88;4.35;;;;;;;3.72;78.56;101850.22;5071361;28;20036;-45
2021/04/12 04:52:22;;;;;;;6.95;4.85;;;;;;;3.97;77.39;101847.41;5073340;28;20444;-44
2021/04/12 04:55:06;;;;;;;6.40;4.70;;;;;;;4.06;76.81;101843.66;5058200;28;20495;-45
2021/04/12 04:57:37;;;;;;;6.88;5.03;;;;;;;3.92;77.29;101859.34;5077040;28;20043;-44
2021/04/12 05:00:08;;;;;;;7.82;5.05;;;;;;;3.71;78.46;101874.25;5070311;28;20031;-45
2021/04/12 05:02:59;;;;;;;6.38;4.70;;;;;;;3.78;78.67;101889.28;5074367;28;20130;-46
2021/04/12 05:05:46;;;;;;;7.10;4.97;;;;;;;3.64;79.23;101887.38;5072818;28;20039;-45
2021/04/12 05:08:50;;;;;;;6.97;4.45;;;;;;;3.58;79.53;101896.00;5070613;28;20020;-43
2021/04/12 05:11:35;;;;;;;5.45;3.92;;;;;;;3.76;78.67;101891.25;5074960;28;20020;-45
2021/04/12 05:14:07;;;;;;;;;;;;;;;3.85;77.90;101892.06;5076878;28;20059;-46
2021/04/12 05:16:52;;;;;;;6.15;4.30;;;;;;;3.85;78.02;101900.84;5079239;28;19912;-46
2021/04/12 05:19:49;;;;;;;6.43;4.68;;;;;;;3.73;78.20;101910.19;5059977;28;20035;-45
2021/04/12 05:22:33;;;;;;;7.13;4.45;;;;;;;3.90;77.27;101922.34;5078087;28;20119;-44
2021/04/12 05:25:21;;;;;;;7.78;4.07;;;;;;;3.92;77.67;101930.94;5079640;28;20047;-44
2021/04/12 05:28:16;;;;;;;9.23;4.03;;;;;;;3.91;76.88;101934.59;5076944;28;20028;-44
2021/04/12 05:31:19;;;;;;;5.47;4.00;;;;;;;4.02;76.04;101940.50;5080401;28;20401;-45
2021/04/12 05:34:18;;;;;;;5.43;3.72;;;;;;;4.19;75.09;101952.66;5076916;28;20039;-44
2021/04/12 05:37:08;;;;;;;3.55;3.25;;;;;;;4.28;74.67;101953.41;5077431;28;20043;-44
2021/04/12 05:39:42;;;;;;;3.33;2.80;;;;;;;4.25;74.39;101958.06;5079670;28;20633;-45
2021/04/12 05:42:14;;;;;;;5.43;3.47;;;;;;;4.24;74.34;101966.22;5076013;28;20486;-44
2021/04/12 05:45:04;;;;;;;4.47;2.85;;;;;;;4.33;74.22;101974.94;5078446;28;20097;-47
2021/04/12 05:48:07;;;;;;;5.82;3.00;;;;;;;4.39;73.80;101979.53;5081634;28;20108;-44
2021/04/12 05:51:09;;;;;;;5.72;2.63;;;;;;;4.44;73.06;101978.00;5083623;28;20024;-45
2021/04/12 05:54:16;;;;;;;3.92;2.35;;;;;;;4.36;71.52;101978.06;5082397;28;20035;-44
2021/04/12 05:56:59;;;;;;;2.33;2.10;;;;;;;4.51;70.87;101984.25;5042961;28;20040;-47
2021/04/12 05:59:44;;;;;;;4.18;2.60;;;;;;;4.49;69.95;101985.44;5081030;28;20102;-44
2021/04/12 06:02:23;;;;;;;2.85;1.75;;;;;;;4.52;69.05;101995.72;5081021;28;22064;-44
2021/04/12 06:05:04;;;;;;;2.70;1.98;;;;;;;4.63;68.94;101992.63;5082277;28;20036;-46
2021/04/12 06:08:11;;;;;;;2.10;1.65;;;;;;;4.62;67.94;101998.94;5081715;28;20107;-45
2021/04/12 06:10:50;;;;;;;2.95;1.65;;;;;;;4.87;67.94;101999.56;5082731;28;20020;-44
2021/04/12 06:13:40;;;;;;;4.30;2.25;;;;;;;4.67;67.55;102001.03;5081413;28;20488;-44
2021/04/12 06:16:54;;;;;;;2.70;1.60;;;;;;;4.83;66.88;101992.94;5080890;28;20020;-44
2021/04/12 06:19:44;;;;;;;2.58;1.70;;;;;;;4.91;66.46;101997.38;5031453;28;20044;-45
2021/04/12 06:22:26;;;;;;;3.20;2.15;;;;;;;4.98;66.31;101985.00;5080594;28;20184;-44
2021/04/12 06:25:00;;;;;;;3.22;1.90;;;;;;;5.07;66.34;101994.56;5080843;28;20043;-44
2021/04/12 06:28:25;;;;;;;3.42;2.05;;;;;;;5.23;66.30;101994.41;5082240;28;20062;-44
2021/04/12 06:31:09;;;;;;;2.30;1.92;;;;;;;5.22;66.41;101991.94;5021209;28;20032;-44
2021/04/12 06:33:53;;;;;;;2.90;2.05;;;;;;;5.21;66.36;102000.91;5021775;28;20033;-44
2021/04/12 06:36:19;;;;;;;1.77;1.67;;;;;;;4.86;67.35;102005.88;5071534;28;20089;-45
2021/04/12 06:39:15;;;;;;;2.97;1.63;;;;;;;4.90;67.30;102012.47;5081394;28;20099;-44
2021/04/12 06:42:05;;;;;;;3.00;1.73;;;;;;;4.93;66.16;102014.78;5081545;28;20142;-46
2021/04/12 06:45:01;;;;;;;6.75;1.75;;;;;;;4.92;66.36;102017.59;5063519;28;20183;-45
2021/04/12 06:47:57;;;;;;;2.88;1.63;;;;;;;5.03;66.55;102031.28;5082150;28;20035;-44
2021/04/12 06:50:51;;;;;;;3.67;1.65;;;;;;;5.08;65.94;102036.88;5078411;28;20174;-47
2021/04/12 06:53:54;;;;;;;1.35;1.20;;;;;;;4.80;65.76;102046.41;5081223;28;20032;-45
2021/04/12 06:56:22;;;;;;;2.92;1.70;;;;;;;4.90;65.83;102041.69;5081619;28;20111;-46
2021/04/12 06:59:25;;;;;;;1.90;1.52;;;;;;;4.90;66.43;102060.28;5080585;28;20055;-45
2021/04/12 07:02:18;;;;;;;3.55;1.42;;;;;;;4.76;65.73;102053.91;5077934;28;20028;-44
2021/04/12 07:05:08;;;;;;;2.45;1.30;;;;;;;4.79;65.84;102063.34;5078450;28;20036;-44
2021/04/12 07:07:56;;;;;;;3.38;1.77;;;;;;;4.68;66.49;102074.41;5080527;28;20021;-45
2021/04/12 07:11:00;;;;;;;3.20;1.60;;;;;;;4.96;66.31;102072.84;5078914;28;20027;-46
2021/04/12 07:13:53;;;;;;;2.92;1.80;;;;;;;5.07;65.80;102085.72;5080445;28;20440;-46
2021/04/12 07:16:37;;;;;;;2.13;1.45;;;;;;;4.70;66.68;102098.94;5078799;28;20073;-45
2021/04/12 07:19:53;;;;;;;2.90;1.35;;;;;;;4.68;65.59;102101.78;5081304;28;20028;-45
2021/04/12 07:22:18;;;;;;;2.67;1.80;;;;;;;4.64;66.24;102096.97;4997396;28;20025;-44
2021/04/12 07:25:12;;;;;;;1.88;1.45;;;;;;;4.86;65.63;102093.53;4985359;28;20443;-45
2021/04/12 07:27:46;;;;;;;6.70;1.65;;;;;;;4.79;65.49;102114.63;5059381;28;20043;-47
2021/04/12 07:30:31;;;;;;;6.13;1.83;;;;;;;5.04;65.82;102102.00;5078844;28;20024;-45
2021/04/12 07:33:06;;;;;;;;;;;;;;;4.94;66.28;102114.69;5078788;28;20029;-45
2021/04/12 07:35:42;;;;;;;3.10;1.52;;;;;;;4.88;65.97;102122.56;5082388;28;19950;-44
2021/04/12 07:38:42;;;;;;;4.70;1.73;;;;;;;4.82;66.67;102110.78;5077829;28;20550;-46
2021/04/12 07:41:46;;;;;;;3.85;1.80;;;;;;;5.03;66.07;102100.34;5078066;28;20062;-45
2021/04/12 07:44:29;;;;;;;4.43;1.85;;;;;;;5.45;64.51;102110.44;5080778;28;20039;-45
2021/04/12 07:47:25;;;;;;;1.85;1.55;;;;;;;5.58;63.65;102115.13;5076211;28;20035;-45
2021/04/12 07:50:30;;;;;;;1.85;1.27;;;;;;;5.36;63.35;102126.63;5077003;28;20019;-46
2021/04/12 07:53:23;;;;;;;4.50;2.05;;;;;;;5.38;63.72;102124.59;5075336;28;20028;-45
2021/04/12 07:55:54;;;;;;;3.80;1.98;;;;;;;5.66;62.94;102117.69;5077207;28;20099;-46
2021/04/12 07:58:41;;;;;;;2.40;1.40;;;;;;;5.24;63.46;102117.44;5080981;28;20036;-46
2021/04/12 08:01:22;;;;;;;3.83;1.88;;;;;;;5.06;64.67;102134.53;5081026;28;20040;-44
2021/04/12 08:04:28;;;;;;;2.78;1.73;;;;;;;5.10;64.76;102142.97;5080128;28;20024;-47
2021/04/12 08:06:59;;;;;;;;;;;;;;;5.08;64.02;102150.28;5078102;28;20012;-44
2021/04/12 08:09:55;;;;;;;2.83;1.60;;;;;;;5.32;63.70;102147.44;5077315;28;19920;-44
2021/04/12 08:12:48;;;;;;;2.15;1.85;;;;;;;5.32;62.85;102152.75;5073809;28;20021;-45
2021/04/12 08:15:38;;;;;;;2.88;1.52;;;;;;;5.31;63.08;102147.59;5079859;28;20049;-45
2021/04/12 08:18:29;;;;;;;1.88;1.50;;;;;;;5.46;62.54;102159.13;5077405;28;20040;-46
2021/04/12 08:21:13;;;;;;;4.60;2.03;;;;;;;5.56;62.39;102170.31;5078322;28;20027;-46
2021/04/12 08:24:17;;;;;;;3.55;1.73;;;;;;;5.54;61.98;102167.00;5062433;28;20086;-44
2021/04/12 08:26:54;;;;;;;2.42;1.70;;;;;;;6.07;61.24;102167.81;5079578;28;20078;-45
2021/04/12 08:29:38;;;;;;;2.42;1.85;;;;;;;6.19;60.65;102178.84;5057349;28;20039;-45
2021/04/12 08:32:22;;;;;;;3.10;1.77;;;;;;;6.05;61.20;102177.81;5079088;28;20049;-45
2021/04/12 08:35:06;;;;;;;2.33;1.50;;;;;;;5.85;61.03;102185.50;5076653;28;20034;-48
2021/04/12 08:37:51;;;;;;;4.82;1.83;;;;;;;5.96;60.82;102176.28;5075661;28;20115;-48
2021/04/12 08:40:54;;;;;;;2.72;1.63;;;;;;;6.42;60.61;102184.06;5076422;28;20036;-45
2021/04/12 08:43:56;;;;;;;2.38;1.85;;;;;;;6.78;58.95;102190.22;5076721;28;20602;-45
2021/04/12 08:46:44;;;;;;;3.58;1.70;;;;;;;6.97;58.25;102200.28;5079292;28;20693;-45
2021/04/12 08:49:31;;;;;;;2.53;1.50;;;;;;;7.01;57.28;102198.09;5075811;28;20402;-45
2021/04/12 08:52:12;;;;;;;2.83;1.55;;;;;;;7.03;57.30;102200.56;5077511;28;20024;-44
2021/04/12 08:55:07;;;;;;;5.95;1.60;;;;;;;7.07;57.45;102207.16;5073732;28;20028;-45
2021/04/12 08:57:51;;;;;;;3.23;1.97;;;;;;;6.19;59.44;102218.75;5072655;28;20025;-45
2021/04/12 09:00:43;;;;;;;2.10;1.70;;;;;;;6.65;58.87;102219.41;5061771;28;20787;-44
2021/04/12 09:03:27;;;;;;;4.20;1.90;;;;;;;6.66;58.56;102224.53;5067992;28;20070;-46
2021/04/12 09:06:33;;;;;;;3.05;1.85;;;;;;;6.91;58.26;102230.34;5072072;28;20085;-45
2021/04/12 09:09:04;;;;;;;3.47;2.60;;;;;;;6.34;58.00;102228.41;5075803;28;20035;-45
2021/04/12 09:11:51;;;;;;;2.28;2.08;;;;;;;6.79;58.24;102218.53;5076398;28;20063;-45
2021/04/12 09:14:17;;;;;;;2.65;2.22;;;;;;;6.80;57.76;102212.19;5076966;28;20089;-48
2021/04/12 09:17:12;;;;;;;4.32;1.83;;;;;;;6.96;57.50;102217.28;5074273;28;20186;-45
2021/04/12 09:20:09;;;;;;;4.15;2.40;;;;;;;7.11;57.28;102219.09;5061310;28;20028;-45
2021/04/12 09:22:50;;;;;;;2.35;2.08;;;;;;;7.07;56.87;102228.47;5065477;28;20617;-46
2021/04/12 09:25:15;;;;;;;2.45;1.85;;;;;;;7.26;55.84;102227.84;5077145;28;20024;-45
2021/04/12 09:28:25;;;;;;;3.78;2.17;;;;;;;7.48;55.71;102226.84;5074889;28;20036;-45
2021/04/12 09:30:54;;;;;;;3.67;1.92;;;;;;;8.01;54.96;102232.59;5056712;28;20036;-44
2021/04/12 09:33:22;;;;;;;3.08;1.77;;;;;;;8.02;54.74;102244.09;5079088;28;20035;-44
2021/04/12 09:36:22;;;;;;;2.30;1.77;;;;;;;7.31;54.40;102241.44;5077186;28;20119;-45
2021/04/12 09:38:50;;;;;;;4.10;1.80;;;;;;;7.95;54.45;102244.06;5077322;28;20028;-44
2021/04/12 09:41:26;;;;;;;3.80;1.90;;;;;;;7.94;54.06;102252.25;5072263;28;20051;-45
2021/04/12 09:44:13;;;;;;;3.15;1.90;;;;;;;7.75;54.66;102254.59;5077381;28;20025;-45
2021/04/12 09:46:57;;;;;;;3.00;1.77;;;;;;;7.25;55.26;102256.34;5073883;28;20195;-45
2021/04/12 09:49:40;;;;;;;2.08;1.80;;;;;;;7.60;55.49;102255.66;5074701;28;20521;-45
2021/04/12 09:52:49;;;;;;;2.90;1.50;;;;;;;7.27;55.99;102256.16;5075355;28;20025;-44
2021/04/12 09:55:20;;;;;;;1.77;1.55;;;;;;;6.76;56.34;102269.50;5074584;28;20027;-46
2021/04/12 09:57:52;;;;;;;3.30;1.67;;;;;;;6.64;57.31;102255.84;5074032;28;20036;-47
2021/04/12 10:00:20;;;;;;;2.00;1.65;;;;;;;6.76;57.31;102256.19;5076275;28;20035;-46
2021/04/12 10:03:15;;;;;;;2.88;1.83;;;;;;;6.53;57.60;102252.81;5070538;28;20036;-44
2021/04/12 10:06:05;;;;;;;1.95;1.55;;;;;;;6.74;58.07;102262.72;5075138;28;20032;-45
2021/04/12 10:08:36;;;;;;;1.92;1.55;;;;;;;6.59;58.00;102260.06;5080023;22;20044;-84
2021/04/12 10:11:15;;;;;;;3.03;1.55;;;;;;;6.62;57.52;102257.84;5058956;28;20021;-85
2021/04/12 10:14:10;;;;;;;1.73;1.45;;;;;;;6.42;57.95;102267.41;5052493;28;20028;-85
2021/04/12 10:16:43;;;;;;;7.70;2.05;;;;;;;6.48;58.06;102261.38;5047210;28;20040;-85
2021/04/12 10:19:16;;;;;;;4.13;1.48;;;;;;;6.28;57.64;102254.91;5048577;28;20029;-85
2021/04/12 10:22:09;;;;;;;2.72;1.50;;;;;;;7.05;56.57;102252.66;5042660;28;20043;-85
2021/04/12 10:24:50;;;;;;;2.70;1.90;;;;;;;7.53;54.87;102252.91;5045403;28;20020;-84
2021/04/12 10:27:42;;;;;;;2.55;1.48;;;;;;;7.57;53.68;102249.72;5059187;28;20033;-84
2021/04/12 10:30:23;;;;;;;2.42;1.55;;;;;;;7.31;54.20;102262.75;5053016;28;20020;-85
2021/04/12 10:33:04;;;;;;;2.22;1.25;;;;;;;7.28;55.84;102263.97;5054014;28;20032;-84
2021/04/12 10:35:40;;;;;;;2.50;1.20;;;;;;;7.38;54.98;102270.84;5051563;28;20081;-84
2021/04/12 10:38:31;;;;;;;4.72;1.58;;;;;;;7.95;54.72;102268.09;5048421;28;20087;-85
2021/04/12 10:41:33;;;;;;;1.83;0.98;;;;;;;7.57;54.45;102268.38;5056318;28;20402;-85
2021/04/12 10:44:10;;;;;;;2.28;1.20;;;;;;;7.75;52.75;102269.75;5051979;28;20056;-85
2021/04/12 10:46:45;;;;;;;2.95;1.33;;;;;;;7.52;53.08;102275.28;5053938;28;20027;-84
2021/04/12 10:49:17;;;;;;;3.03;1.40;;;;;;;7.17;53.87;102269.78;5047935;28;20028;-85
2021/04/12 10:51:49;;;;;;;2.63;1.00;;;;;;;7.64;53.89;102272.94;5064889;28;20047;-85
2021/04/12 10:54:26;;;;;;;2.25;1.70;;;;;;;7.49;53.99;102276.50;5057870;28;20028;-85
2021/04/12 10:57:53;;;;;;;4.15;1.25;;;;;;;7.72;53.34;102276.31;5048218;28;20036;-84
2021/04/12 11:01:14;;;;;;;;;;;;;;;;;;;;;
2021/04/12 11:08:07;;;;;;;;;;;;;;;;;;;;;
2021/04/12 11:10:44;;;;;;;2.25;1.10;;;;;;;7.75;53.17;102281.25;5037670;28;20088;-90
2021/04/12 11:13:10;;;;;;;1.25;1.10;;;;;;;8.02;52.15;102281.47;5076350;28;20020;-84
2021/04/12 11:15:54;;;;;;;4.07;1.40;;;;;;;8.29;51.53;102283.31;5072364;28;20023;-87
2021/04/12 11:19:10;;;;;;;1.63;1.25;;;;;;;8.85;49.83;102287.78;5072007;28;20791;-87
2021/04/12 11:22:35;;;;;;;1.55;1.23;;;;;;;9.03;48.74;102285.38;5009784;28;20038;-87
2021/04/12 11:25:19;;;;;;;4.63;1.42;;;;;;;9.53;47.65;102296.63;5058862;28;20480;-86
2021/04/12 11:28:14;;;;;;;3.95;1.40;;;;;;;8.97;48.47;102296.84;5063499;28;20044;-86
2021/04/12 11:30:45;;;;;;;2.83;1.40;;;;;;;9.34;47.45;102303.59;5073062;28;20029;-85
2021/04/12 11:33:50;;;;;;;3.28;0.93;;;;;;;8.83;48.49;102304.00;5065836;28;20020;-86
2021/04/12 11:36:44;;;;;;;2.42;1.00;;;;;;;9.04;48.08;102298.53;5070716;28;20024;-85
2021/04/12 11:39:21;;;;;;;2.65;1.48;;;;;;;9.31;49.20;102306.63;5065715;28;20085;-86
2021/04/12 11:42:07;;;;;;;2.75;1.38;;;;;;;8.68;48.09;102317.50;5074621;28;20023;-86
2021/04/12 11:44:45;;;;;;;1.77;1.38;;;;;;;7.79;50.13;102319.06;5063433;28;20481;-86
2021/04/12 11:47:36;;;;;;;2.25;1.30;;;;;;;8.44;50.08;102317.97;5071008;28;20024;-87
2021/04/12 11:50:30;;;;;;;4.20;1.33;;;;;;;8.56;48.71;102316.38;5061455;28;20450;-85
2021/04/12 11:53:23;;;;;;;2.45;1.83;;;;;;;8.70;49.38;102327.97;5089088;28;20138;-88
2021/04/12 11:56:08;;;;;;;1.85;1.30;;;;;;;8.52;48.92;102320.47;5086327;28;20698;-87
2021/04/12 11:58:39;;;;;;;1.52;1.27;;;;;;;8.39;48.98;102317.72;5086131;28;20016;-85
2021/04/12 12:01:08;;;;;;;2.13;1.10;;;;;;;8.67;48.61;102323.88;5069053;28;20035;-84
2021/04/12 12:03:52;;;;;;;2.25;1.20;;;;;;;8.84;49.04;102328.88;5067484;28;20027;-84
2021/04/12 12:06:33;;;;;;;3.37;1.40;;;;;;;8.92;48.86;102324.19;5069380;28;20032;-84
2021/04/12 12:09:32;;;;;;;2.35;1.33;;;;;;;9.01;48.73;102338.22;5074187;28;20286;-84
2021/04/12 12:12:07;;;;;;;3.28;1.42;;;;;;;8.87;48.47;102328.47;5039962;28;20054;-84
2021/04/12 12:14:41;;;;;;;2.38;1.48;;;;;;;9.30;47.60;102337.09;5049295;28;20475;-87
2021/04/12 12:17:23;;;;;;;3.83;1.20;;;;;;;9.57;47.07;102335.31;5047673;28;20085;-87
2021/04/12 12:20:02;;;;;;;1.08;1.00;;;;;;;9.60;47.08;102329.56;5062314;28;20060;-86
2021/04/12 12:22:52;;;;;;;2.42;1.30;;;;;;;9.52;46.42;102337.78;5052482;28;20025;-86
2021/04/12 12:25:41;;;;;;;2.85;1.17;;;;;;;8.49;48.91;102334.22;5051407;28;20032;-85
2021/04/12 12:28:19;;;;;;;2.33;1.00;;;;;;;9.07;48.03;102332.91;5051093;28;20043;-84
2021/04/12 12:31:09;;;;;;;3.42;1.10;;;;;;;8.84;47.55;102328.88;5044043;28;20036;-84
2021/04/12 12:33:55;;;;;;;1.42;1.08;;;;;;;9.21;47.65;102325.75;5040177;28;20124;-85
2021/04/12 12:36:32;;;;;;;2.88;1.50;;;;;;;10.12;45.78;102333.31;5058611;28;20551;-90
2021/04/12 12:39:19;;;;;;;0.90;0.90;;;;;;;9.50;45.98;102339.81;5050545;28;20036;-91
2021/04/12 12:41:50;;;;;;;2.08;1.20;;;;;;;9.61;45.91;102333.88;5055405;28;20165;-86
2021/04/12 12:44:23;;;;;;;2.28;1.40;;;;;;;9.94;45.22;102345.47;5069900;28;20032;-87
2021/04/12 12:46:52;;;;;;;2.53;1.08;;;;;;;10.11;44.99;102343.22;5050179;28;20039;-87
2021/04/12 12:49:25;;;;;;;2.28;1.25;;;;;;;9.19;46.94;102343.03;5061532;28;20021;-86
2021/04/12 12:51:56;;;;;;;1.90;1.02;;;;;;;9.64;45.81;102341.50;5051098;28;20498;-85
2021/04/12 12:54:39;;;;;;;2.85;0.95;;;;;;;9.31;45.55;102346.75;5050417;28;20036;-86
2021/04/12 12:57:10;;;;;;;3.10;1.05;;;;;;;9.29;45.30;102355.00;5049140;28;20437;-86
2021/04/12 12:59:41;;;;;;;1.15;0.77;;;;;;;9.69;44.97;102349.75;5063369;28;20021;-84
2021/04/12 13:02:22;;;;;;;1.27;0.80;;;;;;;9.51;44.24;102358.34;5052556;28;20024;-85
2021/04/12 13:05:11;;;;;;;2.08;0.80;;;;;;;9.18;44.62;102357.44;5050084;28;20071;-86
2021/04/12 13:07:40;;;;;;;2.75;1.00;;;;;;;8.33;46.72;102355.84;5043243;28;20044;-86
2021/04/12 13:10:39;;;;;;;1.55;1.00;;;;;;;8.28;47.51;102358.28;5057870;28;20494;-85